createdAt,value
2018-06-15T00:00:12.772Z,99058.30
2018-06-15T00:02:52.813Z,99055.32
2018-06-15T00:05:27.312Z,99056.11
2018-06-15T00:08:01.921Z,99058.87
2018-06-15T00:10:36.318Z,99050.77
2018-06-15T00:13:10.926Z,99056.34
2018-06-15T00:15:45.248Z,99056.91
2018-06-15T00:18:19.931Z,99056.13
2018-06-15T00:20:54.491Z,99050.88
2018-06-15T00:23:29.260Z,99047.56
2018-06-15T00:26:04.079Z,99049.95
2018-06-15T00:28:38.989Z,99045.05
2018-06-15T00:31:13.491Z,99050.98
2018-06-15T00:33:47.873Z,99048.60
2018-06-15T00:36:22.313Z,99055.80
2018-06-15T00:38:56.716Z,99051.78
2018-06-15T00:41:31.536Z,99053.29
2018-06-15T00:44:06.276Z,99049.61
2018-06-15T00:46:41.249Z,99055.34
2018-06-15T00:49:15.770Z,99057.49
2018-06-15T00:51:50.082Z,99052.91
2018-06-15T00:54:24.632Z,99048.12
2018-06-15T00:57:10.365Z,99040.36
2018-06-15T00:59:45.079Z,99046.41
2018-06-15T01:02:19.765Z,99045.84
2018-06-15T01:04:54.213Z,99042.98
2018-06-15T01:07:28.705Z,99039.23
2018-06-15T01:10:03.269Z,99043.68
2018-06-15T01:12:37.893Z,99036.48
2018-06-15T01:15:12.449Z,99036.47
2018-06-15T01:17:47.277Z,99033.17
2018-06-15T01:20:21.724Z,99036.03
2018-06-15T01:22:56.389Z,99032.14
2018-06-15T01:25:31.096Z,99035.34
2018-06-15T01:28:05.772Z,99023.78
2018-06-15T01:30:40.320Z,99027.58
2018-06-15T01:33:14.776Z,99030.08
2018-06-15T01:35:49.274Z,99029.17
2018-06-15T01:38:23.731Z,99025.28
2018-06-15T01:40:58.328Z,99023.33
2018-06-15T01:43:32.941Z,99015.80
2018-06-15T01:49:15.276Z,99021.84
2018-06-15T01:51:49.833Z,99014.10
2018-06-15T01:54:24.353Z,99014.41
2018-06-15T01:56:58.830Z,99010.19
2018-06-15T01:59:33.377Z,99020.82
2018-06-15T02:02:07.971Z,99019.67
2018-06-15T02:04:42.384Z,99013.98
2018-06-15T02:07:16.920Z,99015.34
2018-06-15T02:09:51.836Z,99011.13
2018-06-15T02:12:26.390Z,99012.95
2018-06-15T02:15:00.768Z,99015.69
2018-06-15T02:17:35.381Z,99010.65
2018-06-15T02:20:09.712Z,99014.55
2018-06-15T02:22:44.116Z,99006.91
2018-06-15T02:25:18.544Z,99008.48
2018-06-15T02:27:53.008Z,99009.42
2018-06-15T02:30:27.824Z,99010.89
2018-06-15T02:33:02.199Z,99010.66
2018-06-15T02:35:39.802Z,99009.98
2018-06-15T02:38:14.356Z,99012.95
2018-06-15T02:40:48.971Z,99006.33
2018-06-15T02:43:23.904Z,99006.89
2018-06-15T02:45:58.323Z,99009.65
2018-06-15T02:48:33.062Z,99008.62
2018-06-15T02:51:07.839Z,99011.00
2018-06-15T02:53:42.297Z,99011.70
2018-06-15T02:56:16.892Z,99015.23
2018-06-15T02:58:51.680Z,99016.14
2018-06-15T03:01:26.173Z,99018.44
2018-06-15T03:04:00.935Z,99019.78
2018-06-15T03:06:35.484Z,99024.59
2018-06-15T03:09:10.477Z,99024.27
2018-06-15T03:11:44.964Z,99021.25
2018-06-15T03:14:19.496Z,99017.84
2018-06-15T03:16:53.972Z,99023.77
2018-06-15T03:19:29.141Z,99030.76
2018-06-15T03:22:03.524Z,99029.63
2018-06-15T03:24:37.974Z,99034.30
2018-06-15T03:27:12.516Z,99033.04
2018-06-15T03:29:46.956Z,99039.22
2018-06-15T03:32:21.532Z,99039.11
2018-06-15T03:34:55.953Z,99032.23
2018-06-15T03:37:30.453Z,99037.16
2018-06-15T03:40:05.012Z,99043.00
2018-06-15T03:42:39.701Z,99042.42
2018-06-15T03:45:14.157Z,99042.32
2018-06-15T03:47:48.900Z,99052.93
2018-06-15T03:50:23.670Z,99051.91
2018-06-15T03:52:58.198Z,99052.83
2018-06-15T03:55:32.928Z,99049.27
2018-06-15T03:58:07.797Z,99054.75
2018-06-15T04:00:42.564Z,99058.17
2018-06-15T04:03:17.347Z,99059.23
2018-06-15T04:05:51.944Z,99057.95
2018-06-15T04:08:26.822Z,99059.11
2018-06-15T04:11:01.265Z,99058.97
2018-06-15T04:13:36.012Z,99061.85
2018-06-15T04:16:10.476Z,99065.03
2018-06-15T04:18:44.999Z,99064.58
2018-06-15T04:21:19.609Z,99064.94
2018-06-15T04:23:54.172Z,99052.91
2018-06-15T04:26:28.566Z,99053.59
2018-06-15T04:29:02.987Z,99048.14
2018-06-15T04:31:37.432Z,99056.36
2018-06-15T04:34:12.041Z,99069.14
2018-06-15T04:36:46.519Z,99071.42
2018-06-15T04:39:21.281Z,99072.56
2018-06-15T04:41:55.710Z,99073.84
2018-06-15T04:44:30.350Z,99062.16
2018-06-15T04:47:04.988Z,99067.80
2018-06-15T04:49:40.276Z,99066.19
2018-06-15T04:52:15.115Z,99069.13
2018-06-15T04:54:50.349Z,99077.77
2018-06-15T04:57:24.882Z,99076.62
2018-06-15T05:00:00.317Z,99075.88
2018-06-15T05:02:35.053Z,99071.33
2018-06-15T05:05:09.753Z,99066.42
2018-06-15T05:07:44.393Z,99072.99
2018-06-15T05:10:19.116Z,99077.77
2018-06-15T05:12:53.721Z,99071.83
2018-06-15T05:15:28.373Z,99074.32
2018-06-15T05:18:03.252Z,99075.25
2018-06-15T05:20:37.640Z,99086.36
2018-06-15T05:23:12.027Z,99091.65
2018-06-15T05:25:46.725Z,99079.95
2018-06-15T05:28:21.440Z,99083.16
2018-06-15T05:30:56.168Z,99087.77
2018-06-15T05:33:30.500Z,99086.96
2018-06-15T05:36:05.041Z,99094.11
2018-06-15T05:38:39.500Z,99097.69
2018-06-15T05:41:13.974Z,99096.06
2018-06-15T05:43:48.449Z,99100.56
2018-06-15T05:46:23.066Z,99094.87
2018-06-15T05:48:58.109Z,99092.48
2018-06-15T05:51:32.861Z,99085.28
2018-06-15T05:54:07.232Z,99085.63
2018-06-15T05:56:41.584Z,99082.66
2018-06-15T05:59:16.205Z,99088.59
2018-06-15T06:01:50.703Z,99079.72
2018-06-15T06:04:25.077Z,99085.69
2018-06-15T06:06:59.724Z,99091.56
2018-06-15T06:09:34.313Z,99091.34
2018-06-15T06:12:08.840Z,99094.80
2018-06-15T06:14:43.252Z,99098.36
2018-06-15T06:17:17.981Z,99091.70
2018-06-15T06:19:52.522Z,99096.84
2018-06-15T06:22:27.220Z,99098.94
2018-06-15T06:25:01.817Z,99106.70
2018-06-15T06:27:36.445Z,99103.64
2018-06-15T06:30:11.047Z,99111.58
2018-06-15T06:32:45.649Z,99112.58
2018-06-15T06:35:20.272Z,99115.55
2018-06-15T06:37:55.116Z,99120.41
2018-06-15T06:40:29.571Z,99129.27
2018-06-15T06:43:04.073Z,99129.45
2018-06-15T06:45:38.752Z,99134.32
2018-06-15T06:48:13.592Z,99131.18
2018-06-15T06:50:48.144Z,99132.15
2018-06-15T06:53:22.704Z,99136.66
2018-06-15T06:55:57.272Z,99136.58
2018-06-15T06:58:31.780Z,99133.97
2018-06-15T07:01:06.272Z,99127.95
2018-06-15T07:03:40.791Z,99133.73
2018-06-15T07:06:15.216Z,99119.09
2018-06-15T07:08:49.721Z,99123.40
2018-06-15T07:11:24.418Z,99126.29
2018-06-15T07:13:58.848Z,99128.12
2018-06-15T07:16:33.441Z,99129.38
2018-06-15T07:19:07.796Z,99133.75
2018-06-15T07:21:42.199Z,99126.21
2018-06-15T07:24:16.732Z,99128.51
2018-06-15T07:26:51.268Z,99135.39
2018-06-15T07:29:25.660Z,99129.05
2018-06-15T07:32:00.183Z,99131.19
2018-06-15T07:34:34.616Z,99139.23
2018-06-15T07:37:09.313Z,99131.70
2018-06-15T07:39:43.861Z,99137.87
2018-06-15T07:42:18.505Z,99133.86
2018-06-15T07:44:53.189Z,99135.28
2018-06-15T07:47:27.926Z,99128.31
2018-06-15T07:50:02.541Z,99125.89
2018-06-15T07:52:36.969Z,99133.97
2018-06-15T07:55:11.452Z,99138.53
2018-06-15T07:57:45.936Z,99135.08
2018-06-15T08:00:20.495Z,99135.09
2018-06-15T08:02:54.957Z,99137.67
2018-06-15T08:05:29.564Z,99137.86
2018-06-15T08:08:04.056Z,99139.27
2018-06-15T08:10:38.592Z,99132.69
2018-06-15T08:13:13.104Z,99136.29
2018-06-15T08:15:47.723Z,99130.41
2018-06-15T08:18:22.045Z,99123.34
2018-06-15T08:20:56.617Z,99131.69
2018-06-15T08:23:31.124Z,99129.30
2018-06-15T08:26:05.805Z,99128.84
2018-06-15T08:28:40.408Z,99125.52
2018-06-15T08:31:15.061Z,99122.02
2018-06-15T08:33:49.695Z,99126.93
2018-06-15T08:36:24.049Z,99125.69
2018-06-15T08:38:58.437Z,99130.41
2018-06-15T08:41:32.965Z,99135.81
2018-06-15T08:44:07.481Z,99131.50
2018-06-15T08:46:42.033Z,99138.20
2018-06-15T08:49:16.517Z,99138.04
2018-06-15T08:51:50.918Z,99136.98
2018-06-15T08:54:25.728Z,99134.06
2018-06-15T08:57:05.139Z,99128.75
2018-06-15T08:59:39.531Z,99128.09
2018-06-15T09:02:13.886Z,99128.25
2018-06-15T09:04:48.700Z,99128.00
2018-06-15T09:07:23.419Z,99136.23
2018-06-15T09:09:58.064Z,99130.21
2018-06-15T09:12:32.571Z,99129.63
2018-06-15T09:15:06.912Z,99132.27
2018-06-15T09:17:41.309Z,99128.98
2018-06-15T09:20:15.719Z,99132.87
2018-06-15T09:22:50.428Z,99132.07
2018-06-15T09:25:25.061Z,99123.27
2018-06-15T09:27:59.567Z,99132.77
2018-06-15T09:30:34.005Z,99131.98
2018-06-15T09:33:08.370Z,99128.02
2018-06-15T09:35:42.936Z,99138.60
2018-06-15T09:38:17.486Z,99131.67
2018-06-15T09:40:52.145Z,99127.52
2018-06-15T09:43:26.840Z,99138.38
2018-06-15T09:46:01.397Z,99140.60
2018-06-15T09:48:35.904Z,99137.83
2018-06-15T09:51:10.718Z,99133.58
2018-06-15T09:53:45.336Z,99134.84
2018-06-15T09:56:19.920Z,99144.70
2018-06-15T09:58:56.038Z,99140.34
2018-06-15T10:01:30.777Z,99135.37
2018-06-15T10:04:05.201Z,99138.48
2018-06-15T10:06:39.909Z,99137.81
2018-06-15T10:09:14.384Z,99137.55
2018-06-15T10:11:48.878Z,99132.22
2018-06-15T10:14:23.254Z,99140.03
2018-06-15T10:16:57.773Z,99144.31
2018-06-15T10:19:32.545Z,99135.78
2018-06-15T10:22:07.118Z,99143.16
2018-06-15T10:24:41.479Z,99138.48
2018-06-15T10:27:15.920Z,99140.72
2018-06-15T10:29:50.383Z,99136.70
2018-06-15T10:32:24.773Z,99133.06
2018-06-15T10:34:59.236Z,99139.24
2018-06-15T10:37:33.692Z,99132.39
2018-06-15T10:40:08.148Z,99131.68
2018-06-15T10:42:42.903Z,99133.83
2018-06-15T10:45:17.456Z,99127.56
2018-06-15T10:47:52.084Z,99127.28
2018-06-15T10:50:26.724Z,99127.55
2018-06-15T10:53:01.200Z,99125.39
2018-06-15T10:55:35.769Z,99127.47
2018-06-15T10:58:10.252Z,99130.27
2018-06-15T11:00:44.716Z,99132.74
2018-06-15T11:03:19.085Z,99135.27
2018-06-15T11:05:53.932Z,99135.27
2018-06-15T11:08:28.768Z,99123.83
2018-06-15T11:11:03.428Z,99120.59
2018-06-15T11:13:38.009Z,99131.24
2018-06-15T11:16:12.941Z,99126.70
2018-06-15T11:18:47.899Z,99121.95
2018-06-15T11:21:25.424Z,99113.57
2018-06-15T11:24:00.092Z,99114.09
2018-06-15T11:26:44.101Z,99107.34
2018-06-15T11:29:18.481Z,99106.89
2018-06-15T11:31:53.063Z,99107.33
2018-06-15T11:34:27.952Z,99101.64
2018-06-15T11:37:02.513Z,99100.16
2018-06-15T11:39:36.896Z,99102.37
2018-06-15T11:42:11.496Z,99099.48
2018-06-15T11:44:45.832Z,99096.69
2018-06-15T11:47:20.564Z,99087.24
2018-06-15T11:49:55.150Z,99089.95
2018-06-15T11:52:29.669Z,99088.84
2018-06-15T11:55:04.233Z,99089.45
2018-06-15T11:57:38.649Z,99090.20
2018-06-15T12:00:13.365Z,99094.27
2018-06-15T12:02:48.020Z,99087.61
2018-06-15T12:05:22.496Z,99091.66
2018-06-15T12:07:56.926Z,99084.44
2018-06-15T12:10:31.292Z,99079.86
2018-06-15T12:13:05.640Z,99078.87
2018-06-15T12:15:40.105Z,99075.53
2018-06-15T12:18:14.652Z,99070.50
2018-06-15T12:20:49.092Z,99071.36
2018-06-15T12:23:23.548Z,99071.51
2018-06-15T12:25:58.298Z,99065.81
2018-06-15T12:28:32.874Z,99072.52
2018-06-15T12:31:07.877Z,99071.33
2018-06-15T12:33:42.400Z,99075.28
2018-06-15T12:36:16.778Z,99063.43
2018-06-15T12:38:51.244Z,99064.45
2018-06-15T12:41:25.781Z,99061.69
2018-06-15T12:44:00.173Z,99059.28
2018-06-15T12:46:34.537Z,99064.39
2018-06-15T12:49:09.006Z,99064.06
2018-06-15T12:51:43.557Z,99064.39
2018-06-15T12:54:17.954Z,99060.26
2018-06-15T12:57:15.099Z,99070.40
2018-06-15T12:59:49.744Z,99073.98
2018-06-15T13:02:24.308Z,99056.66
2018-06-15T13:04:59.048Z,99062.59
2018-06-15T13:07:33.893Z,99059.39
2018-06-15T13:10:08.405Z,99058.41
2018-06-15T13:12:43.265Z,99057.97
2018-06-15T13:15:17.721Z,99064.56
2018-06-15T13:17:52.179Z,99063.67
2018-06-15T13:20:26.784Z,99059.50
2018-06-15T13:23:01.245Z,99059.28
2018-06-15T13:25:35.608Z,99061.03
2018-06-15T13:28:09.901Z,99064.25
2018-06-15T13:30:44.511Z,99065.58
2018-06-15T13:33:18.865Z,99067.36
2018-06-15T13:35:53.449Z,99065.17
2018-06-15T13:38:28.188Z,99061.67
2018-06-15T13:41:02.848Z,99064.53
2018-06-15T13:43:37.269Z,99065.80
2018-06-15T13:46:12.149Z,99055.61
2018-06-15T13:48:46.628Z,99051.93
2018-06-15T13:51:21.036Z,99044.47
2018-06-15T13:53:55.480Z,99054.27
2018-06-15T13:56:30.093Z,99060.38
2018-06-15T13:59:04.401Z,99053.80
2018-06-15T14:01:38.959Z,99055.32
2018-06-15T14:04:13.803Z,99051.21
2018-06-15T14:06:48.399Z,99052.22
2018-06-15T14:09:22.867Z,99048.84
2018-06-15T14:11:57.500Z,99051.89
2018-06-15T14:14:32.056Z,99050.98
2018-06-15T14:17:06.524Z,99056.30
2018-06-15T14:19:40.852Z,99057.91
2018-06-15T14:22:15.309Z,99054.72
2018-06-15T14:24:49.760Z,99060.03
2018-06-15T14:27:24.410Z,99054.73
2018-06-15T14:29:58.927Z,99045.80
2018-06-15T14:32:33.652Z,99045.98
2018-06-15T14:35:08.265Z,99047.78
2018-06-15T14:37:43.033Z,99049.33
2018-06-15T14:40:17.545Z,99041.05
2018-06-15T14:42:52.172Z,99045.81
2018-06-15T14:45:26.645Z,99041.42
2018-06-15T14:48:01.333Z,99029.98
2018-06-15T14:50:35.908Z,99028.46
2018-06-15T14:53:10.221Z,99028.84
2018-06-15T14:55:44.639Z,99028.49
2018-06-15T14:58:19.061Z,99029.48
2018-06-15T15:00:53.592Z,99033.30
2018-06-15T15:03:27.945Z,99029.30
2018-06-15T15:06:02.432Z,99021.71
2018-06-15T15:08:37.004Z,99027.66
2018-06-15T15:11:11.440Z,99026.96
2018-06-15T15:13:46.050Z,99014.70
2018-06-15T15:16:20.968Z,99021.06
2018-06-15T15:18:55.637Z,99024.79
2018-06-15T15:21:30.081Z,99023.89
2018-06-15T15:24:04.480Z,99023.38
2018-06-15T15:26:39.032Z,99021.30
2018-06-15T15:29:13.722Z,99015.42
2018-06-15T15:31:48.209Z,99011.28
2018-06-15T15:34:22.668Z,99021.41
2018-06-15T15:36:57.148Z,99019.91
2018-06-15T15:39:31.589Z,99010.69
2018-06-15T15:42:06.241Z,99012.71
2018-06-15T15:44:40.742Z,99018.03
2018-06-15T15:47:15.457Z,99015.45
2018-06-15T15:49:49.829Z,99015.81
2018-06-15T15:52:24.388Z,99012.69
2018-06-15T15:54:58.829Z,99010.91
2018-06-15T15:57:33.348Z,99009.12
2018-06-15T16:00:07.832Z,99005.16
2018-06-15T16:02:42.157Z,99004.53
2018-06-15T16:05:16.649Z,99002.96
2018-06-15T16:07:51.169Z,99000.80
2018-06-15T16:10:25.759Z,98996.84
2018-06-15T16:13:00.224Z,98991.02
2018-06-15T16:15:34.661Z,98998.73
2018-06-15T16:18:09.240Z,99003.07
2018-06-15T16:20:43.642Z,99001.52
2018-06-15T16:23:18.345Z,98992.81
2018-06-15T16:25:52.970Z,98991.84
2018-06-15T16:28:27.537Z,98988.08
2018-06-15T16:31:02.292Z,98991.20
2018-06-15T16:33:36.712Z,98983.58
2018-06-15T16:36:11.259Z,98991.05
2018-06-15T16:38:45.625Z,98993.62
2018-06-15T16:41:19.972Z,98990.83
2018-06-15T16:43:54.504Z,98991.28
2018-06-15T16:46:28.949Z,98992.83
2018-06-15T16:49:03.689Z,98987.87
2018-06-15T16:51:38.504Z,98989.64
2018-06-15T16:54:13.049Z,98989.09
2018-06-15T16:56:47.997Z,98987.53
2018-06-15T16:59:22.569Z,98994.23
2018-06-15T17:01:56.945Z,98991.44
2018-06-15T17:04:31.254Z,98994.01
2018-06-15T17:07:05.908Z,98991.06
2018-06-15T17:09:40.427Z,98987.70
2018-06-15T17:12:14.809Z,98995.22
2018-06-15T17:14:49.618Z,98994.45
2018-06-15T17:17:24.064Z,98987.66
2018-06-15T17:19:58.837Z,98992.81
2018-06-15T17:22:33.393Z,98993.58
2018-06-15T17:25:07.873Z,98993.98
2018-06-15T17:27:42.364Z,98995.61
2018-06-15T17:30:16.761Z,98998.02
2018-06-15T17:32:51.387Z,99000.00
2018-06-15T17:35:26.176Z,98997.24
2018-06-15T17:38:00.783Z,98995.78
2018-06-15T17:40:35.217Z,98999.08
2018-06-15T17:43:10.049Z,98997.67
2018-06-15T17:45:44.425Z,98998.83
2018-06-15T17:48:19.004Z,99000.84
2018-06-15T17:50:53.532Z,99003.84
2018-06-15T17:53:28.105Z,99009.05
2018-06-15T17:56:02.636Z,99012.69
2018-06-15T17:58:37.141Z,99009.11
2018-06-15T18:01:11.833Z,99002.19
2018-06-15T18:03:46.364Z,99014.47
2018-06-15T18:06:20.889Z,99005.96
2018-06-15T18:08:55.546Z,99012.27
2018-06-15T18:11:30.036Z,99018.02
2018-06-15T18:14:04.468Z,99015.02
2018-06-15T18:16:38.897Z,99019.51
2018-06-15T18:19:13.429Z,99016.69
2018-06-15T18:21:48.128Z,99013.28
2018-06-15T18:24:22.766Z,99024.45
2018-06-15T18:26:57.297Z,99019.48
2018-06-15T18:29:31.831Z,99019.00
2018-06-15T18:32:06.919Z,99021.08
2018-06-15T18:34:41.637Z,99017.82
2018-06-15T18:37:16.160Z,99022.56
2018-06-15T18:39:50.760Z,99013.98
2018-06-15T18:42:25.362Z,99016.95
2018-06-15T18:44:59.841Z,99015.57
2018-06-15T18:47:34.508Z,99016.28
2018-06-15T18:50:08.997Z,99018.03
2018-06-15T18:52:43.572Z,99015.79
2018-06-15T18:55:18.186Z,99014.25
2018-06-15T18:57:59.421Z,99010.38
2018-06-15T19:00:34.061Z,99011.45
2018-06-15T19:03:08.439Z,99015.56
2018-06-15T19:05:43.264Z,99013.45
2018-06-15T19:08:17.596Z,99017.47
2018-06-15T19:10:52.360Z,99007.30
2018-06-15T19:13:26.724Z,99009.16
2018-06-15T19:16:01.389Z,99014.44
2018-06-15T19:18:35.761Z,99015.74
2018-06-15T19:21:10.486Z,99013.80
2018-06-15T19:23:45.401Z,99016.66
2018-06-15T19:26:20.452Z,99012.73
2018-06-15T19:28:54.946Z,99017.52
2018-06-15T19:31:29.420Z,99017.73
2018-06-15T19:34:03.945Z,99018.49
2018-06-15T19:36:38.509Z,99019.91
2018-06-15T19:39:12.974Z,99021.30
2018-06-15T19:41:47.404Z,99023.38
2018-06-15T19:44:21.908Z,99017.48
2018-06-15T19:46:56.536Z,99025.92
2018-06-15T19:49:31.225Z,99017.93
2018-06-15T19:52:06.288Z,99023.45
2018-06-15T19:54:40.775Z,99019.41
2018-06-15T19:57:15.540Z,99026.19
2018-06-15T19:59:50.124Z,99024.86
2018-06-15T20:02:24.524Z,99020.72
2018-06-15T20:04:58.998Z,99026.13
2018-06-15T20:07:33.533Z,99025.88
2018-06-15T20:10:08.090Z,99024.60
2018-06-15T20:12:42.537Z,99022.58
2018-06-15T20:15:17.112Z,99020.88
2018-06-15T20:17:51.772Z,99016.36
2018-06-15T20:20:26.185Z,99018.19
2018-06-15T20:23:00.712Z,99017.12
2018-06-15T20:25:35.133Z,99015.48
2018-06-15T20:28:09.772Z,99010.95
2018-06-15T20:30:44.398Z,99011.89
2018-06-15T20:33:18.952Z,99016.75
2018-06-15T20:35:53.495Z,99021.46
2018-06-15T20:38:27.927Z,99024.15
2018-06-15T20:41:02.270Z,99016.90
2018-06-15T20:43:36.683Z,99026.80
2018-06-15T20:46:11.037Z,99020.43
2018-06-15T20:48:45.764Z,99020.36
2018-06-15T20:51:20.166Z,99017.33
2018-06-15T20:53:54.564Z,99015.95
2018-06-15T20:56:29.389Z,99007.09
2018-06-15T20:59:03.908Z,99008.33
2018-06-15T21:01:38.321Z,99003.25
2018-06-15T21:04:13.144Z,98999.79
2018-06-15T21:06:47.732Z,99004.05
2018-06-15T21:09:22.113Z,98999.20
2018-06-15T21:11:56.732Z,98997.97
2018-06-15T21:14:31.262Z,98999.94
2018-06-15T21:17:06.028Z,98988.75
2018-06-15T21:19:40.761Z,98996.98
2018-06-15T21:22:15.869Z,98995.08
2018-06-15T21:24:50.761Z,98993.80
2018-06-15T21:27:25.180Z,98992.69
2018-06-15T21:29:59.972Z,98993.48
2018-06-15T21:32:34.657Z,98990.98
2018-06-15T21:35:09.228Z,98995.63
2018-06-15T21:37:43.735Z,98995.55
2018-06-15T21:40:18.327Z,98997.30
2018-06-15T21:42:53.053Z,98992.49
2018-06-15T21:45:27.396Z,98992.87
2018-06-15T21:48:01.737Z,98990.91
2018-06-15T21:50:36.121Z,98987.98
2018-06-15T21:53:10.574Z,98994.72
2018-06-15T21:55:45.084Z,98988.45
2018-06-15T21:58:19.717Z,98986.81
2018-06-15T22:00:54.204Z,98991.99
2018-06-15T22:03:28.526Z,98991.65
2018-06-15T22:06:02.893Z,98983.48
2018-06-15T22:08:37.855Z,98992.63
2018-06-15T22:11:12.603Z,98991.39
2018-06-15T22:13:47.065Z,98989.83
2018-06-15T22:16:21.522Z,98988.81
2018-06-15T22:18:56.016Z,98986.20
2018-06-15T22:21:30.538Z,98980.13
2018-06-15T22:24:05.007Z,98986.38
2018-06-15T22:26:39.369Z,98984.55
2018-06-15T22:29:14.732Z,98984.28
2018-06-15T22:31:49.292Z,98986.38
2018-06-15T22:34:23.751Z,98987.05
2018-06-15T22:36:58.180Z,98991.45
2018-06-15T22:39:32.677Z,98989.27
2018-06-15T22:42:07.061Z,98989.44
2018-06-15T22:44:44.272Z,98991.23
2018-06-15T22:47:18.696Z,98992.77
2018-06-15T22:49:53.255Z,98988.66
2018-06-15T22:52:27.672Z,98986.43
2018-06-15T22:55:02.305Z,98995.59
2018-06-15T22:57:36.845Z,98994.16
2018-06-15T23:00:12.124Z,98983.14
2018-06-15T23:02:46.911Z,98994.23
2018-06-15T23:05:21.533Z,98991.95
2018-06-15T23:07:55.884Z,98989.19
2018-06-15T23:10:30.289Z,98990.77
2018-06-15T23:13:05.147Z,98989.23
2018-06-15T23:15:39.592Z,98989.70
2018-06-15T23:18:14.004Z,98985.11
2018-06-15T23:20:48.837Z,98982.19
2018-06-15T23:23:23.328Z,98987.84
2018-06-15T23:25:57.678Z,98989.11
2018-06-15T23:28:32.172Z,98988.22
2018-06-15T23:31:06.564Z,98987.05
2018-06-15T23:33:41.095Z,98993.36
2018-06-15T23:36:15.471Z,98989.23
2018-06-15T23:38:49.880Z,98987.30
2018-06-15T23:41:24.718Z,98988.31
2018-06-15T23:43:59.284Z,98989.26
2018-06-15T23:46:33.728Z,98994.55
2018-06-15T23:49:08.267Z,98992.89
2018-06-15T23:51:42.632Z,98993.33
2018-06-15T23:54:17.145Z,98998.93
2018-06-15T23:56:51.493Z,98993.49
2018-06-15T23:59:25.872Z,98994.86
